sensor_id;sensor_type;location;lat;lon;timestamp;temperature;humidity
72288;SHT31;60221;45.696;16.076;2022-12-18T00:01:18;7.18;90.21
72288;SHT31;60221;45.696;16.076;2022-12-18T00:03:46;7.18;90.26
72288;SHT31;60221;45.696;16.076;2022-12-18T00:06:14;7.18;90.24
72288;SHT31;60221;45.696;16.076;2022-12-18T00:08:43;7.16;90.22
72288;SHT31;60221;45.696;16.076;2022-12-18T00:11:14;7.16;90.29
72288;SHT31;60221;45.696;16.076;2022-12-18T00:13:41;7.18;89.97
72288;SHT31;60221;45.696;16.076;2022-12-18T00:16:12;7.16;90.07
72288;SHT31;60221;45.696;16.076;2022-12-18T00:18:38;7.13;89.94
72288;SHT31;60221;45.696;16.076;2022-12-18T00:21:08;7.11;89.88
72288;SHT31;60221;45.696;16.076;2022-12-18T00:23:37;7.11;89.94
72288;SHT31;60221;45.696;16.076;2022-12-18T00:26:10;7.09;89.71
72288;SHT31;60221;45.696;16.076;2022-12-18T00:28:35;7.09;89.71
72288;SHT31;60221;45.696;16.076;2022-12-18T00:31:09;7.06;89.43
72288;SHT31;60221;45.696;16.076;2022-12-18T00:33:37;7.06;89.27
72288;SHT31;60221;45.696;16.076;2022-12-18T00:36:08;7.03;89.51
72288;SHT31;60221;45.696;16.076;2022-12-18T00:38:36;6.99;89.09
72288;SHT31;60221;45.696;16.076;2022-12-18T00:41:04;6.96;89.14
72288;SHT31;60221;45.696;16.076;2022-12-18T00:43:31;6.94;88.86
72288;SHT31;60221;45.696;16.076;2022-12-18T00:45:59;6.88;88.89
72288;SHT31;60221;45.696;16.076;2022-12-18T00:48:25;6.83;88.60
72288;SHT31;60221;45.696;16.076;2022-12-18T00:50:51;6.70;88.98
72288;SHT31;60221;45.696;16.076;2022-12-18T00:53:18;6.61;89.27
72288;SHT31;60221;45.696;16.076;2022-12-18T00:55:45;6.53;89.39
72288;SHT31;60221;45.696;16.076;2022-12-18T00:58:15;6.48;89.43
72288;SHT31;60221;45.696;16.076;2022-12-18T01:00:42;6.40;89.49
72288;SHT31;60221;45.696;16.076;2022-12-18T01:03:13;6.35;89.71
72288;SHT31;60221;45.696;16.076;2022-12-18T01:05:41;6.27;89.51
72288;SHT31;60221;45.696;16.076;2022-12-18T01:08:07;6.22;89.33
72288;SHT31;60221;45.696;16.076;2022-12-18T01:10:34;6.15;89.73
72288;SHT31;60221;45.696;16.076;2022-12-18T01:13:00;6.09;89.71
72288;SHT31;60221;45.696;16.076;2022-12-18T01:15:26;6.05;89.91
72288;SHT31;60221;45.696;16.076;2022-12-18T01:17:53;5.98;89.74
72288;SHT31;60221;45.696;16.076;2022-12-18T01:20:19;5.94;89.87
72288;SHT31;60221;45.696;16.076;2022-12-18T01:22:46;5.91;89.81
72288;SHT31;60221;45.696;16.076;2022-12-18T01:25:12;5.82;90.05
72288;SHT31;60221;45.696;16.076;2022-12-18T01:27:38;5.79;89.93
72288;SHT31;60221;45.696;16.076;2022-12-18T01:30:06;5.74;90.05
72288;SHT31;60221;45.696;16.076;2022-12-18T01:32:33;5.65;90.06
72288;SHT31;60221;45.696;16.076;2022-12-18T01:34:59;5.60;89.84
72288;SHT31;60221;45.696;16.076;2022-12-18T01:37:27;5.57;90.04
72288;SHT31;60221;45.696;16.076;2022-12-18T01:39:53;5.71;89.97
72288;SHT31;60221;45.696;16.076;2022-12-18T01:42:21;5.81;89.55
72288;SHT31;60221;45.696;16.076;2022-12-18T01:47:47;5.74;89.23
72288;SHT31;60221;45.696;16.076;2022-12-18T01:50:36;5.60;89.47
72288;SHT31;60221;45.696;16.076;2022-12-18T01:53:11;5.65;89.79
72288;SHT31;60221;45.696;16.076;2022-12-18T01:55:46;5.64;89.71
72288;SHT31;60221;45.696;16.076;2022-12-18T01:58:14;5.53;89.52
72288;SHT31;60221;45.696;16.076;2022-12-18T02:00:41;5.41;89.53
72288;SHT31;60221;45.696;16.076;2022-12-18T02:03:08;5.33;89.85
72288;SHT31;60221;45.696;16.076;2022-12-18T02:06:01;5.24;89.81
72288;SHT31;60221;45.696;16.076;2022-12-18T02:17:25;4.86;89.50
72288;SHT31;60221;45.696;16.076;2022-12-18T02:27:47;4.64;89.25
72288;SHT31;60221;45.696;16.076;2022-12-18T02:30:16;4.58;89.63
72288;SHT31;60221;45.696;16.076;2022-12-18T02:32:48;4.57;89.78
72288;SHT31;60221;45.696;16.076;2022-12-18T02:35:23;4.51;89.71
72288;SHT31;60221;45.696;16.076;2022-12-18T02:37:47;4.48;89.63
72288;SHT31;60221;45.696;16.076;2022-12-18T02:40:17;4.44;89.75
72288;SHT31;60221;45.696;16.076;2022-12-18T02:42:44;4.43;89.79
72288;SHT31;60221;45.696;16.076;2022-12-18T02:45:13;4.39;89.74
72288;SHT31;60221;45.696;16.076;2022-12-18T02:47:43;4.39;89.87
72288;SHT31;60221;45.696;16.076;2022-12-18T02:50:34;4.40;89.81
72288;SHT31;60221;45.696;16.076;2022-12-18T02:53:20;4.43;89.93
72288;SHT31;60221;45.696;16.076;2022-12-18T02:56:15;4.43;89.91
72288;SHT31;60221;45.696;16.076;2022-12-18T02:59:02;4.39;89.93
72288;SHT31;60221;45.696;16.076;2022-12-18T03:04:39;4.40;89.91
72288;SHT31;60221;45.696;16.076;2022-12-18T03:07:12;4.32;89.98
72288;SHT31;60221;45.696;16.076;2022-12-18T03:09:43;4.29;89.89
72288;SHT31;60221;45.696;16.076;2022-12-18T03:12:40;4.23;89.75
72288;SHT31;60221;45.696;16.076;2022-12-18T03:15:19;4.20;89.91
72288;SHT31;60221;45.696;16.076;2022-12-18T03:17:56;4.17;89.88
72288;SHT31;60221;45.696;16.076;2022-12-18T03:20:27;4.13;89.60
72288;SHT31;60221;45.696;16.076;2022-12-18T03:22:59;4.12;89.54
72288;SHT31;60221;45.696;16.076;2022-12-18T03:25:28;4.12;89.83
72288;SHT31;60221;45.696;16.076;2022-12-18T03:27:59;4.09;89.94
72288;SHT31;60221;45.696;16.076;2022-12-18T03:30:29;4.09;89.96
72288;SHT31;60221;45.696;16.076;2022-12-18T03:33:12;4.12;89.79
72288;SHT31;60221;45.696;16.076;2022-12-18T03:35:42;4.09;89.82
72288;SHT31;60221;45.696;16.076;2022-12-18T03:38:11;4.10;89.86
72288;SHT31;60221;45.696;16.076;2022-12-18T03:44:28;4.09;90.05
72288;SHT31;60221;45.696;16.076;2022-12-18T03:49:56;4.10;90.08
72288;SHT31;60221;45.696;16.076;2022-12-18T03:52:51;4.10;90.06
72288;SHT31;60221;45.696;16.076;2022-12-18T03:55:21;4.09;90.16
72288;SHT31;60221;45.696;16.076;2022-12-18T03:57:52;4.10;90.05
72288;SHT31;60221;45.696;16.076;2022-12-18T04:00:20;4.10;90.06
72288;SHT31;60221;45.696;16.076;2022-12-18T04:02:57;4.10;89.91
72288;SHT31;60221;45.696;16.076;2022-12-18T04:05:28;4.10;89.99
72288;SHT31;60221;45.696;16.076;2022-12-18T04:07:57;4.08;90.11
72288;SHT31;60221;45.696;16.076;2022-12-18T04:10:24;4.09;90.13
72288;SHT31;60221;45.696;16.076;2022-12-18T04:12:58;4.10;90.20
72288;SHT31;60221;45.696;16.076;2022-12-18T04:15:24;4.08;89.95
72288;SHT31;60221;45.696;16.076;2022-12-18T04:17:51;4.08;89.97
72288;SHT31;60221;45.696;16.076;2022-12-18T04:20:20;4.09;90.05
72288;SHT31;60221;45.696;16.076;2022-12-18T04:22:47;4.13;90.17
72288;SHT31;60221;45.696;16.076;2022-12-18T04:25:14;4.12;90.22
72288;SHT31;60221;45.696;16.076;2022-12-18T04:27:42;4.14;90.25
72288;SHT31;60221;45.696;16.076;2022-12-18T04:30:10;4.16;90.30
72288;SHT31;60221;45.696;16.076;2022-12-18T04:32:37;4.17;90.38
72288;SHT31;60221;45.696;16.076;2022-12-18T04:35:04;4.20;90.25
72288;SHT31;60221;45.696;16.076;2022-12-18T04:37:32;4.17;90.12
72288;SHT31;60221;45.696;16.076;2022-12-18T04:39:59;4.19;90.03
72288;SHT31;60221;45.696;16.076;2022-12-18T04:42:27;4.16;90.04
72288;SHT31;60221;45.696;16.076;2022-12-18T04:44:53;4.16;89.97
72288;SHT31;60221;45.696;16.076;2022-12-18T04:47:19;4.17;90.00
72288;SHT31;60221;45.696;16.076;2022-12-18T04:49:45;4.19;90.05
72288;SHT31;60221;45.696;16.076;2022-12-18T04:52:12;4.20;90.05
72288;SHT31;60221;45.696;16.076;2022-12-18T04:54:38;4.24;90.00
72288;SHT31;60221;45.696;16.076;2022-12-18T04:57:04;4.26;90.03
72288;SHT31;60221;45.696;16.076;2022-12-18T04:59:30;4.29;90.00
72288;SHT31;60221;45.696;16.076;2022-12-18T05:01:56;4.30;89.93
72288;SHT31;60221;45.696;16.076;2022-12-18T05:04:23;4.30;89.66
72288;SHT31;60221;45.696;16.076;2022-12-18T05:06:49;4.35;89.69
72288;SHT31;60221;45.696;16.076;2022-12-18T05:09:15;4.35;89.59
72288;SHT31;60221;45.696;16.076;2022-12-18T05:11:41;4.35;89.11
72288;SHT31;60221;45.696;16.076;2022-12-18T05:14:07;4.36;89.55
72288;SHT31;60221;45.696;16.076;2022-12-18T05:16:33;4.37;89.44
72288;SHT31;60221;45.696;16.076;2022-12-18T05:18:59;4.37;89.48
72288;SHT31;60221;45.696;16.076;2022-12-18T05:21:26;4.37;89.69
72288;SHT31;60221;45.696;16.076;2022-12-18T05:23:52;4.40;89.66
72288;SHT31;60221;45.696;16.076;2022-12-18T05:26:18;4.37;89.74
72288;SHT31;60221;45.696;16.076;2022-12-18T05:28:45;4.39;89.64
72288;SHT31;60221;45.696;16.076;2022-12-18T05:31:13;4.37;89.34
72288;SHT31;60221;45.696;16.076;2022-12-18T05:33:39;4.37;89.53
72288;SHT31;60221;45.696;16.076;2022-12-18T05:36:08;4.37;89.55
72288;SHT31;60221;45.696;16.076;2022-12-18T05:38:37;4.36;89.69
72288;SHT31;60221;45.696;16.076;2022-12-18T05:41:05;4.39;89.56
72288;SHT31;60221;45.696;16.076;2022-12-18T05:43:32;4.39;89.81
72288;SHT31;60221;45.696;16.076;2022-12-18T05:46:11;4.39;89.64
72288;SHT31;60221;45.696;16.076;2022-12-18T05:48:36;4.35;89.71
72288;SHT31;60221;45.696;16.076;2022-12-18T05:51:13;4.35;89.58
72288;SHT31;60221;45.696;16.076;2022-12-18T05:53:37;4.36;89.36
72288;SHT31;60221;45.696;16.076;2022-12-18T05:56:08;4.35;89.51
72288;SHT31;60221;45.696;16.076;2022-12-18T05:58:36;4.36;89.65
72288;SHT31;60221;45.696;16.076;2022-12-18T06:01:16;4.36;89.65
72288;SHT31;60221;45.696;16.076;2022-12-18T06:03:44;4.35;89.91
72288;SHT31;60221;45.696;16.076;2022-12-18T06:06:24;4.37;89.55
72288;SHT31;60221;45.696;16.076;2022-12-18T06:08:53;4.36;89.64
72288;SHT31;60221;45.696;16.076;2022-12-18T06:11:24;4.37;89.57
72288;SHT31;60221;45.696;16.076;2022-12-18T06:13:54;4.35;89.20
72288;SHT31;60221;45.696;16.076;2022-12-18T06:16:20;4.40;89.22
72288;SHT31;60221;45.696;16.076;2022-12-18T06:18:46;4.39;89.21
72288;SHT31;60221;45.696;16.076;2022-12-18T06:21:13;4.30;89.41
72288;SHT31;60221;45.696;16.076;2022-12-18T06:23:39;4.24;89.78
72288;SHT31;60221;45.696;16.076;2022-12-18T06:26:09;4.21;90.16
72288;SHT31;60221;45.696;16.076;2022-12-18T06:28:36;4.17;90.10
72288;SHT31;60221;45.696;16.076;2022-12-18T06:31:06;4.13;90.37
72288;SHT31;60221;45.696;16.076;2022-12-18T06:33:33;4.08;90.35
72288;SHT31;60221;45.696;16.076;2022-12-18T06:36:07;4.05;90.41
72288;SHT31;60221;45.696;16.076;2022-12-18T06:38:35;3.98;90.55
72288;SHT31;60221;45.696;16.076;2022-12-18T06:41:11;3.95;90.57
72288;SHT31;60221;45.696;16.076;2022-12-18T06:43:38;3.91;90.59
72288;SHT31;60221;45.696;16.076;2022-12-18T06:46:05;3.91;90.64
72288;SHT31;60221;45.696;16.076;2022-12-18T06:48:32;3.85;90.73
72288;SHT31;60221;45.696;16.076;2022-12-18T06:50:59;3.82;90.53
72288;SHT31;60221;45.696;16.076;2022-12-18T06:53:26;3.78;90.74
72288;SHT31;60221;45.696;16.076;2022-12-18T06:55:52;3.78;90.48
72288;SHT31;60221;45.696;16.076;2022-12-18T06:58:18;3.75;90.62
72288;SHT31;60221;45.696;16.076;2022-12-18T07:00:44;3.75;90.54
72288;SHT31;60221;45.696;16.076;2022-12-18T07:03:10;3.79;90.66
72288;SHT31;60221;45.696;16.076;2022-12-18T07:05:40;3.81;90.45
72288;SHT31;60221;45.696;16.076;2022-12-18T07:08:07;3.83;90.73
72288;SHT31;60221;45.696;16.076;2022-12-18T07:12:59;3.86;90.71
72288;SHT31;60221;45.696;16.076;2022-12-18T07:15:25;3.91;90.89
72288;SHT31;60221;45.696;16.076;2022-12-18T07:17:51;3.93;90.85
72288;SHT31;60221;45.696;16.076;2022-12-18T07:20:17;3.98;90.85
72288;SHT31;60221;45.696;16.076;2022-12-18T07:22:43;4.06;90.88
72288;SHT31;60221;45.696;16.076;2022-12-18T07:25:09;4.12;91.17
72288;SHT31;60221;45.696;16.076;2022-12-18T07:27:35;4.17;91.03
72288;SHT31;60221;45.696;16.076;2022-12-18T07:30:03;4.19;91.17
72288;SHT31;60221;45.696;16.076;2022-12-18T07:32:30;4.20;90.86
72288;SHT31;60221;45.696;16.076;2022-12-18T07:34:56;4.20;91.00
72288;SHT31;60221;45.696;16.076;2022-12-18T07:37:22;4.16;90.63
72288;SHT31;60221;45.696;16.076;2022-12-18T07:39:48;4.19;90.83
72288;SHT31;60221;45.696;16.076;2022-12-18T07:42:14;4.14;91.04
72288;SHT31;60221;45.696;16.076;2022-12-18T07:44:57;4.19;90.85
72288;SHT31;60221;45.696;16.076;2022-12-18T07:47:23;4.17;90.64
72288;SHT31;60221;45.696;16.076;2022-12-18T07:49:50;4.19;90.93
72288;SHT31;60221;45.696;16.076;2022-12-18T07:52:16;4.23;90.81
72288;SHT31;60221;45.696;16.076;2022-12-18T07:54:42;4.33;91.20
72288;SHT31;60221;45.696;16.076;2022-12-18T07:57:09;4.39;91.11
72288;SHT31;60221;45.696;16.076;2022-12-18T07:59:35;4.40;91.18
72288;SHT31;60221;45.696;16.076;2022-12-18T08:02:01;4.43;91.48
72288;SHT31;60221;45.696;16.076;2022-12-18T08:04:27;4.47;91.53
72288;SHT31;60221;45.696;16.076;2022-12-18T08:06:53;4.48;91.95
72288;SHT31;60221;45.696;16.076;2022-12-18T08:09:20;4.43;91.04
72288;SHT31;60221;45.696;16.076;2022-12-18T08:11:46;4.39;91.17
72288;SHT31;60221;45.696;16.076;2022-12-18T08:14:12;4.33;90.75
72288;SHT31;60221;45.696;16.076;2022-12-18T08:16:38;4.30;90.71
72288;SHT31;60221;45.696;16.076;2022-12-18T08:19:04;4.32;90.71
72288;SHT31;60221;45.696;16.076;2022-12-18T08:21:31;4.32;91.19
72288;SHT31;60221;45.696;16.076;2022-12-18T08:24:00;4.29;90.83
72288;SHT31;60221;45.696;16.076;2022-12-18T08:26:29;4.30;91.30
72288;SHT31;60221;45.696;16.076;2022-12-18T08:28:58;4.33;91.65
72288;SHT31;60221;45.696;16.076;2022-12-18T08:31:27;4.33;90.92
72288;SHT31;60221;45.696;16.076;2022-12-18T08:33:55;4.32;91.07
72288;SHT31;60221;45.696;16.076;2022-12-18T08:36:22;4.32;90.86
72288;SHT31;60221;45.696;16.076;2022-12-18T08:38:50;4.30;90.54
72288;SHT31;60221;45.696;16.076;2022-12-18T08:41:17;4.24;90.17
72288;SHT31;60221;45.696;16.076;2022-12-18T08:43:44;4.24;90.68
72288;SHT31;60221;45.696;16.076;2022-12-18T08:46:40;4.23;90.67
72288;SHT31;60221;45.696;16.076;2022-12-18T08:49:04;4.26;90.48
72288;SHT31;60221;45.696;16.076;2022-12-18T08:51:32;4.21;89.77
72288;SHT31;60221;45.696;16.076;2022-12-18T08:53:58;4.19;89.70
72288;SHT31;60221;45.696;16.076;2022-12-18T08:56:25;4.19;89.36
72288;SHT31;60221;45.696;16.076;2022-12-18T08:58:54;4.17;89.21
72288;SHT31;60221;45.696;16.076;2022-12-18T09:01:21;4.10;89.10
72288;SHT31;60221;45.696;16.076;2022-12-18T09:03:49;4.08;89.28
72288;SHT31;60221;45.696;16.076;2022-12-18T09:06:19;4.06;89.37
72288;SHT31;60221;45.696;16.076;2022-12-18T09:08:47;4.13;88.51
72288;SHT31;60221;45.696;16.076;2022-12-18T09:11:21;4.13;88.24
72288;SHT31;60221;45.696;16.076;2022-12-18T09:13:47;4.14;89.26
72288;SHT31;60221;45.696;16.076;2022-12-18T09:16:13;4.16;89.67
72288;SHT31;60221;45.696;16.076;2022-12-18T09:18:39;4.16;89.49
72288;SHT31;60221;45.696;16.076;2022-12-18T09:21:12;4.19;89.37
72288;SHT31;60221;45.696;16.076;2022-12-18T09:23:39;4.24;89.89
72288;SHT31;60221;45.696;16.076;2022-12-18T09:26:05;4.26;89.43
72288;SHT31;60221;45.696;16.076;2022-12-18T09:28:33;4.29;90.14
72288;SHT31;60221;45.696;16.076;2022-12-18T09:31:07;4.30;90.04
72288;SHT31;60221;45.696;16.076;2022-12-18T09:33:35;4.32;89.48
72288;SHT31;60221;45.696;16.076;2022-12-18T09:36:09;4.37;90.17
72288;SHT31;60221;45.696;16.076;2022-12-18T09:38:35;4.40;90.43
72288;SHT31;60221;45.696;16.076;2022-12-18T09:41:28;4.47;90.38
72288;SHT31;60221;45.696;16.076;2022-12-18T09:46:29;4.53;90.48
72288;SHT31;60221;45.696;16.076;2022-12-18T09:49:00;4.58;90.39
72288;SHT31;60221;45.696;16.076;2022-12-18T09:51:42;4.58;89.65
72288;SHT31;60221;45.696;16.076;2022-12-18T09:54:12;4.61;89.38
72288;SHT31;60221;45.696;16.076;2022-12-18T09:56:42;4.65;90.13
72288;SHT31;60221;45.696;16.076;2022-12-18T09:59:29;4.67;89.96
72288;SHT31;60221;45.696;16.076;2022-12-18T10:01:52;4.72;90.61
72288;SHT31;60221;45.696;16.076;2022-12-18T10:04:19;4.76;89.08
72288;SHT31;60221;45.696;16.076;2022-12-18T10:07:23;4.78;90.61
72288;SHT31;60221;45.696;16.076;2022-12-18T10:10:13;4.86;88.14
72288;SHT31;60221;45.696;16.076;2022-12-18T10:12:56;4.89;90.37
72288;SHT31;60221;45.696;16.076;2022-12-18T10:15:39;4.98;91.42
72288;SHT31;60221;45.696;16.076;2022-12-18T10:18:50;5.05;90.51
72288;SHT31;60221;45.696;16.076;2022-12-18T10:21:11;5.06;91.21
72288;SHT31;60221;45.696;16.076;2022-12-18T10:24:08;5.06;91.05
72288;SHT31;60221;45.696;16.076;2022-12-18T10:26:32;5.06;91.06
72288;SHT31;60221;45.696;16.076;2022-12-18T10:28:59;5.09;90.75
72288;SHT31;60221;45.696;16.076;2022-12-18T10:31:25;5.13;91.09
72288;SHT31;60221;45.696;16.076;2022-12-18T10:33:54;5.13;91.43
72288;SHT31;60221;45.696;16.076;2022-12-18T10:36:23;5.15;90.54
72288;SHT31;60221;45.696;16.076;2022-12-18T10:38:50;5.15;89.98
72288;SHT31;60221;45.696;16.076;2022-12-18T10:41:23;5.18;89.85
72288;SHT31;60221;45.696;16.076;2022-12-18T10:46:55;5.30;91.54
72288;SHT31;60221;45.696;16.076;2022-12-18T10:49:30;5.34;91.73
72288;SHT31;60221;45.696;16.076;2022-12-18T10:52:18;5.53;90.79
72288;SHT31;60221;45.696;16.076;2022-12-18T10:54:58;5.62;91.15
72288;SHT31;60221;45.696;16.076;2022-12-18T10:57:39;5.72;90.92
72288;SHT31;60221;45.696;16.076;2022-12-18T11:00:29;5.77;90.57
72288;SHT31;60221;45.696;16.076;2022-12-18T11:02:57;5.87;90.51
72288;SHT31;60221;45.696;16.076;2022-12-18T11:05:34;5.94;89.84
72288;SHT31;60221;45.696;16.076;2022-12-18T11:08:03;5.94;90.12
72288;SHT31;60221;45.696;16.076;2022-12-18T11:10:38;5.95;85.69
72288;SHT31;60221;45.696;16.076;2022-12-18T11:13:24;5.92;88.73
72288;SHT31;60221;45.696;16.076;2022-12-18T11:15:48;5.92;89.74
72288;SHT31;60221;45.696;16.076;2022-12-18T11:18:25;5.98;89.82
72288;SHT31;60221;45.696;16.076;2022-12-18T11:21:00;6.16;90.11
72288;SHT31;60221;45.696;16.076;2022-12-18T11:23:26;6.12;89.71
72288;SHT31;60221;45.696;16.076;2022-12-18T11:25:57;6.05;88.62
72288;SHT31;60221;45.696;16.076;2022-12-18T11:28:49;6.09;89.98
72288;SHT31;60221;45.696;16.076;2022-12-18T11:31:21;6.06;89.18
72288;SHT31;60221;45.696;16.076;2022-12-18T11:36:33;6.01;89.77
72288;SHT31;60221;45.696;16.076;2022-12-18T11:39:08;5.95;90.29
72288;SHT31;60221;45.696;16.076;2022-12-18T11:41:45;5.85;90.33
72288;SHT31;60221;45.696;16.076;2022-12-18T11:44:51;5.85;87.94
72288;SHT31;60221;45.696;16.076;2022-12-18T11:47:52;5.85;89.86
72288;SHT31;60221;45.696;16.076;2022-12-18T11:53:04;5.72;90.43
72288;SHT31;60221;45.696;16.076;2022-12-18T12:02:11;5.61;91.03
72288;SHT31;60221;45.696;16.076;2022-12-18T12:15:50;5.53;90.20
72288;SHT31;60221;45.696;16.076;2022-12-18T12:24:39;5.58;91.79
72288;SHT31;60221;45.696;16.076;2022-12-18T12:27:33;5.82;89.58
72288;SHT31;60221;45.696;16.076;2022-12-18T12:33:27;6.10;89.62
72288;SHT31;60221;45.696;16.076;2022-12-18T12:39:03;5.97;90.16
72288;SHT31;60221;45.696;16.076;2022-12-18T12:41:33;5.97;90.97
72288;SHT31;60221;45.696;16.076;2022-12-18T12:44:30;5.81;90.82
72288;SHT31;60221;45.696;16.076;2022-12-18T12:47:04;5.78;88.66
72288;SHT31;60221;45.696;16.076;2022-12-18T12:49:33;5.74;90.44
72288;SHT31;60221;45.696;16.076;2022-12-18T12:52:23;5.75;90.79
72288;SHT31;60221;45.696;16.076;2022-12-18T12:54:48;5.74;91.11
72288;SHT31;60221;45.696;16.076;2022-12-18T12:57:40;5.71;90.29
72288;SHT31;60221;45.696;16.076;2022-12-18T13:00:14;5.68;91.62
72288;SHT31;60221;45.696;16.076;2022-12-18T13:03:30;5.64;91.15
72288;SHT31;60221;45.696;16.076;2022-12-18T13:06:00;5.61;91.52
72288;SHT31;60221;45.696;16.076;2022-12-18T13:08:34;5.60;91.12
72288;SHT31;60221;45.696;16.076;2022-12-18T13:11:01;5.58;91.04
72288;SHT31;60221;45.696;16.076;2022-12-18T13:13:54;5.61;91.09
72288;SHT31;60221;45.696;16.076;2022-12-18T13:16:24;5.62;91.58
72288;SHT31;60221;45.696;16.076;2022-12-18T13:18:56;5.60;91.18
72288;SHT31;60221;45.696;16.076;2022-12-18T13:21:31;5.57;91.08
72288;SHT31;60221;45.696;16.076;2022-12-18T13:26:48;5.51;91.24
72288;SHT31;60221;45.696;16.076;2022-12-18T13:29:42;5.51;90.96
72288;SHT31;60221;45.696;16.076;2022-12-18T13:32:24;5.49;91.20
72288;SHT31;60221;45.696;16.076;2022-12-18T13:37:54;5.49;91.51
72288;SHT31;60221;45.696;16.076;2022-12-18T13:43:30;5.46;91.74
72288;SHT31;60221;45.696;16.076;2022-12-18T13:49:20;5.43;91.67
72288;SHT31;60221;45.696;16.076;2022-12-18T13:51:50;5.39;91.36
72288;SHT31;60221;45.696;16.076;2022-12-18T13:54:41;5.40;91.48
72288;SHT31;60221;45.696;16.076;2022-12-18T13:57:30;5.40;92.01
72288;SHT31;60221;45.696;16.076;2022-12-18T14:00:16;5.37;91.85
72288;SHT31;60221;45.696;16.076;2022-12-18T14:02:29;5.36;91.56
72288;SHT31;60221;45.696;16.076;2022-12-18T14:04:55;5.34;91.62
72288;SHT31;60221;45.696;16.076;2022-12-18T14:07:25;5.32;91.53
72288;SHT31;60221;45.696;16.076;2022-12-18T14:09:55;5.32;91.60
72288;SHT31;60221;45.696;16.076;2022-12-18T14:12:30;5.29;91.37
72288;SHT31;60221;45.696;16.076;2022-12-18T14:15:35;5.27;91.41
72288;SHT31;60221;45.696;16.076;2022-12-18T14:20:39;5.29;91.43
72288;SHT31;60221;45.696;16.076;2022-12-18T14:23:32;5.27;91.80
72288;SHT31;60221;45.696;16.076;2022-12-18T14:25:59;5.24;91.57
72288;SHT31;60221;45.696;16.076;2022-12-18T14:28:26;5.24;91.33
72288;SHT31;60221;45.696;16.076;2022-12-18T14:30:53;5.20;91.21
72288;SHT31;60221;45.696;16.076;2022-12-18T14:33:25;5.20;91.25
72288;SHT31;60221;45.696;16.076;2022-12-18T14:36:04;5.18;91.34
72288;SHT31;60221;45.696;16.076;2022-12-18T14:38:35;5.15;91.28
72288;SHT31;60221;45.696;16.076;2022-12-18T14:41:12;5.12;91.13
72288;SHT31;60221;45.696;16.076;2022-12-18T14:43:43;5.08;91.26
72288;SHT31;60221;45.696;16.076;2022-12-18T14:46:35;5.06;91.12
72288;SHT31;60221;45.696;16.076;2022-12-18T14:51:52;4.99;91.31
72288;SHT31;60221;45.696;16.076;2022-12-18T14:54:21;4.98;91.03
72288;SHT31;60221;45.696;16.076;2022-12-18T14:56:54;4.94;90.93
72288;SHT31;60221;45.696;16.076;2022-12-18T14:59:24;4.86;91.16
72288;SHT31;60221;45.696;16.076;2022-12-18T15:02:28;4.85;91.09
72288;SHT31;60221;45.696;16.076;2022-12-18T15:05:16;4.86;91.27
72288;SHT31;60221;45.696;16.076;2022-12-18T15:07:44;5.08;91.68
72288;SHT31;60221;45.696;16.076;2022-12-18T15:18:20;5.09;90.12
72288;SHT31;60221;45.696;16.076;2022-12-18T15:21:07;4.96;89.99
72288;SHT31;60221;45.696;16.076;2022-12-18T15:23:53;4.91;90.23
72288;SHT31;60221;45.696;16.076;2022-12-18T15:26:21;4.78;90.43
72288;SHT31;60221;45.696;16.076;2022-12-18T15:28:57;4.78;90.80
72288;SHT31;60221;45.696;16.076;2022-12-18T15:31:32;4.72;90.73
72288;SHT31;60221;45.696;16.076;2022-12-18T15:34:12;4.63;90.44
72288;SHT31;60221;45.696;16.076;2022-12-18T15:36:41;4.56;90.49
72288;SHT31;60221;45.696;16.076;2022-12-18T15:39:12;4.61;90.78
72288;SHT31;60221;45.696;16.076;2022-12-18T15:41:41;4.68;90.53
72288;SHT31;60221;45.696;16.076;2022-12-18T15:44:24;4.68;90.24
72288;SHT31;60221;45.696;16.076;2022-12-18T15:46:53;4.61;90.04
72288;SHT31;60221;45.696;16.076;2022-12-18T15:49:22;4.57;89.92
72288;SHT31;60221;45.696;16.076;2022-12-18T15:51:56;4.54;89.90
72288;SHT31;60221;45.696;16.076;2022-12-18T15:54:24;4.50;89.87
72288;SHT31;60221;45.696;16.076;2022-12-18T15:57:15;4.41;89.89
72288;SHT31;60221;45.696;16.076;2022-12-18T15:59:55;4.32;89.97
72288;SHT31;60221;45.696;16.076;2022-12-18T16:02:27;4.26;90.07
72288;SHT31;60221;45.696;16.076;2022-12-18T16:04:55;4.26;90.21
72288;SHT31;60221;45.696;16.076;2022-12-18T16:07:24;4.26;90.14
72288;SHT31;60221;45.696;16.076;2022-12-18T16:09:52;4.26;90.03
72288;SHT31;60221;45.696;16.076;2022-12-18T16:12:23;4.26;90.08
72288;SHT31;60221;45.696;16.076;2022-12-18T16:14:52;4.26;89.82
72288;SHT31;60221;45.696;16.076;2022-12-18T16:17:21;4.24;89.43
72288;SHT31;60221;45.696;16.076;2022-12-18T16:19:48;4.14;89.62
72288;SHT31;60221;45.696;16.076;2022-12-18T16:22:27;4.10;89.94
72288;SHT31;60221;45.696;16.076;2022-12-18T16:24:53;4.09;89.70
72288;SHT31;60221;45.696;16.076;2022-12-18T16:27:23;3.96;89.61
72288;SHT31;60221;45.696;16.076;2022-12-18T16:29:52;3.82;89.70
72288;SHT31;60221;45.696;16.076;2022-12-18T16:32:21;3.83;90.18
72288;SHT31;60221;45.696;16.076;2022-12-18T16:34:51;3.86;90.15
72288;SHT31;60221;45.696;16.076;2022-12-18T16:37:22;3.86;90.04
72288;SHT31;60221;45.696;16.076;2022-12-18T16:39:53;3.79;89.91
72288;SHT31;60221;45.696;16.076;2022-12-18T16:42:20;3.67;89.76
72288;SHT31;60221;45.696;16.076;2022-12-18T16:44:49;3.55;90.06
72288;SHT31;60221;45.696;16.076;2022-12-18T16:47:18;3.49;90.15
72288;SHT31;60221;45.696;16.076;2022-12-18T16:49:46;3.47;90.25
72288;SHT31;60221;45.696;16.076;2022-12-18T16:52:16;3.50;90.37
72288;SHT31;60221;45.696;16.076;2022-12-18T16:54:46;3.51;90.09
72288;SHT31;60221;45.696;16.076;2022-12-18T16:57:17;3.45;89.93
72288;SHT31;60221;45.696;16.076;2022-12-18T16:59:46;3.37;90.09
72288;SHT31;60221;45.696;16.076;2022-12-18T17:02:20;3.36;90.19
72288;SHT31;60221;45.696;16.076;2022-12-18T17:04:49;3.27;90.62
72288;SHT31;60221;45.696;16.076;2022-12-18T17:07:17;3.23;90.71
72288;SHT31;60221;45.696;16.076;2022-12-18T17:09:46;3.22;90.55
72288;SHT31;60221;45.696;16.076;2022-12-18T17:12:18;3.33;90.90
72288;SHT31;60221;45.696;16.076;2022-12-18T17:14:47;3.33;90.42
72288;SHT31;60221;45.696;16.076;2022-12-18T17:17:15;3.23;90.34
72288;SHT31;60221;45.696;16.076;2022-12-18T17:19:43;3.13;90.49
72288;SHT31;60221;45.696;16.076;2022-12-18T17:22:10;3.13;90.70
72288;SHT31;60221;45.696;16.076;2022-12-18T17:24:39;3.06;90.68
72288;SHT31;60221;45.696;16.076;2022-12-18T17:27:06;3.03;90.57
72288;SHT31;60221;45.696;16.076;2022-12-18T17:29:35;3.10;91.01
72288;SHT31;60221;45.696;16.076;2022-12-18T17:32:07;3.06;90.73
72288;SHT31;60221;45.696;16.076;2022-12-18T17:34:36;3.12;90.75
72288;SHT31;60221;45.696;16.076;2022-12-18T17:37:07;3.02;90.34